PWSweather.com
Personal Weather Stations
Station Observations
3183437707
Independence And 15th St., Plano, TX 75075

Independence And 15th St.Plano, TX 75075

Lat: 33.0164642, Lon: -96.7458725

Elevation: 730

Station Type: Davis Vantage Vue

http://www.planobestweather.com

Latest ConditionsUpdated 6:40:07 AM CDT Wednesday, Jul 17, 2019
Currently Today's Max Today's Min Today's Average
Temperature 78.1°F25.6°C 86.3°F30.2°C 78.1°F25.6°C 81.9°F27.7°C
Dew Point 72.9°F22.7°C 75.7°F24.3°C 72.3°F22.4°C 74.4°F23.6°C
Winds Calm Calm 4.0 mph -6.4 kmh - - 0.9 mph 1.4 kmh
Wind Gusts 2.0 mph3.2 kmh 7.0 mph11.3 kmh - -
Humidity 84% 84% 70% 78%
Pressure 29.97 in1014.9 mb 29.97 in1014.9 mb 29.93 in1013.5 mb -
Hour Temp Dew Point Humidity Winds Wind Gusts Pressure Precip Precip Rate Daily Precip Total
06:40 AM 78.1°F25.6°C 72.9°F22.7°C 84% Calm Calm 2.0 mph3.2 kmh 29.97 in1014.9 mb 0.00 in0.0 mm 0.00 in0.0 mm 0.00 in0.0 mm
06:35 AM 78.2°F25.7°C 72.6°F22.6°C 83% 1.0 mph SE1.6 kmh SE 1.0 mph1.6 kmh 29.97 in1014.9 mb 0.00 in0.0 mm 0.00 in0.0 mm 0.00 in0.0 mm
06:30 AM 78.3°F25.7°C 72.7°F22.6°C 83% Calm Calm 2.0 mph3.2 kmh 29.97 in1014.9 mb 0.00 in0.0 mm 0.00 in0.0 mm 0.00 in0.0 mm
06:25 AM 78.5°F25.8°C 72.6°F22.6°C 82% Calm Calm 3.0 mph4.8 kmh 29.97 in1014.9 mb 0.00 in0.0 mm 0.00 in0.0 mm 0.00 in0.0 mm
06:20 AM 78.6°F25.9°C 72.3°F22.4°C 81% Calm Calm 1.0 mph1.6 kmh 29.97 in1014.9 mb 0.00 in0.0 mm 0.00 in0.0 mm 0.00 in0.0 mm
06:15 AM 78.7°F25.9°C 72.4°F22.4°C 81% 1.0 mph SW1.6 kmh SW 2.0 mph3.2 kmh 29.97 in1014.9 mb 0.00 in0.0 mm 0.00 in0.0 mm 0.00 in0.0 mm
06:10 AM 78.9°F26.1°C 72.6°F22.6°C 81% 1.0 mph SE1.6 kmh SE 2.0 mph3.2 kmh 29.97 in1014.9 mb 0.00 in0.0 mm 0.00 in0.0 mm 0.00 in0.0 mm
06:05 AM 79.1°F26.2°C 72.4°F22.4°C 80% 1.0 mph SSE1.6 kmh SSE 2.0 mph3.2 kmh 29.97 in1014.9 mb 0.00 in0.0 mm 0.00 in0.0 mm 0.00 in0.0 mm
06:00 AM 79.2°F26.2°C 72.5°F22.5°C 80% 2.0 mph SW3.2 kmh SW 4.0 mph6.4 kmh 29.97 in1014.9 mb 0.00 in0.0 mm 0.00 in0.0 mm 0.00 in0.0 mm
05:55 AM 79.3°F26.3°C 72.6°F22.6°C 80% Calm Calm 1.0 mph1.6 kmh 29.96 in1014.6 mb 0.00 in0.0 mm 0.00 in0.0 mm 0.00 in0.0 mm
05:50 AM 79.4°F26.3°C 72.7°F22.6°C 80% Calm Calm 1.0 mph1.6 kmh 29.96 in1014.6 mb 0.00 in0.0 mm 0.00 in0.0 mm 0.00 in0.0 mm
05:45 AM 79.4°F26.3°C 72.7°F22.6°C 80% 2.0 mph SE3.2 kmh SE 2.0 mph3.2 kmh 29.96 in1014.6 mb 0.00 in0.0 mm 0.00 in0.0 mm 0.00 in0.0 mm
05:40 AM 79.4°F26.3°C 72.7°F22.6°C 80% 1.0 mph S1.6 kmh S 2.0 mph3.2 kmh 29.96 in1014.6 mb 0.00 in0.0 mm 0.00 in0.0 mm 0.00 in0.0 mm
05:35 AM 79.5°F26.4°C 73.2°F22.9°C 81% 1.0 mph SE1.6 kmh SE 1.0 mph1.6 kmh 29.96 in1014.6 mb 0.00 in0.0 mm 0.00 in0.0 mm 0.00 in0.0 mm
05:30 AM 79.6°F26.4°C 73.3°F22.9°C 81% 1.0 mph SW1.6 kmh SW 1.0 mph1.6 kmh 29.95 in1014.2 mb 0.00 in0.0 mm 0.00 in0.0 mm 0.00 in0.0 mm
05:25 AM 79.3°F26.3°C 73.0°F22.8°C 81% 1.0 mph S1.6 kmh S 7.0 mph11.3 kmh 29.95 in1014.2 mb 0.00 in0.0 mm 0.00 in0.0 mm 0.00 in0.0 mm
05:20 AM 79.3°F26.3°C 73.3°F22.9°C 82% 1.0 mph NNE1.6 kmh NNE 4.0 mph6.4 kmh 29.95 in1014.2 mb 0.00 in0.0 mm 0.00 in0.0 mm 0.00 in0.0 mm
05:15 AM 79.4°F26.3°C 73.4°F23.0°C 82% Calm Calm 2.0 mph3.2 kmh 29.95 in1014.2 mb 0.00 in0.0 mm 0.00 in0.0 mm 0.00 in0.0 mm
05:10 AM 79.6°F26.4°C 73.6°F23.1°C 82% Calm Calm 3.0 mph4.8 kmh 29.95 in1014.2 mb 0.00 in0.0 mm 0.00 in0.0 mm 0.00 in0.0 mm
05:05 AM 79.8°F26.6°C 73.8°F23.2°C 82% Calm Calm 1.0 mph1.6 kmh 29.95 in1014.2 mb 0.00 in0.0 mm 0.00 in0.0 mm 0.00 in0.0 mm
05:00 AM 79.8°F26.6°C 73.8°F23.2°C 82% 1.0 mph SW1.6 kmh SW 5.0 mph8.0 kmh 29.95 in1014.2 mb 0.00 in0.0 mm 0.00 in0.0 mm 0.00 in0.0 mm
04:55 AM 79.9°F26.6°C 73.9°F23.3°C 82% 1.0 mph S1.6 kmh S 2.0 mph3.2 kmh 29.95 in1014.2 mb 0.00 in0.0 mm 0.00 in0.0 mm 0.00 in0.0 mm
04:50 AM 80.1°F26.7°C 73.8°F23.2°C 81% Calm Calm 1.0 mph1.6 kmh 29.95 in1014.2 mb 0.00 in0.0 mm 0.00 in0.0 mm 0.00 in0.0 mm
04:45 AM 80.3°F26.8°C 73.9°F23.3°C 81% 1.0 mph SE1.6 kmh SE 2.0 mph3.2 kmh 29.95 in1014.2 mb 0.00 in0.0 mm 0.00 in0.0 mm 0.00 in0.0 mm
04:40 AM 80.5°F26.9°C 74.1°F23.4°C 81% Calm Calm 3.0 mph4.8 kmh 29.95 in1014.2 mb 0.00 in0.0 mm 0.00 in0.0 mm 0.00 in0.0 mm
04:35 AM 80.6°F27.0°C 73.9°F23.3°C 80% Calm Calm 2.0 mph3.2 kmh 29.95 in1014.2 mb 0.00 in0.0 mm 0.00 in0.0 mm 0.00 in0.0 mm
04:30 AM 80.7°F27.1°C 74.0°F23.3°C 80% Calm Calm 2.0 mph3.2 kmh 29.94 in1013.9 mb 0.00 in0.0 mm 0.00 in0.0 mm 0.00 in0.0 mm
04:25 AM 80.8°F27.1°C 74.1°F23.4°C 80% 2.0 mph SW3.2 kmh SW 2.0 mph3.2 kmh 29.95 in1014.2 mb 0.00 in0.0 mm 0.00 in0.0 mm 0.00 in0.0 mm
04:20 AM 80.7°F27.1°C 74.0°F23.3°C 80% 1.0 mph SSW1.6 kmh SSW 2.0 mph3.2 kmh 29.95 in1014.2 mb 0.00 in0.0 mm 0.00 in0.0 mm 0.00 in0.0 mm
04:15 AM 80.8°F27.1°C 74.1°F23.4°C 80% Calm Calm 1.0 mph1.6 kmh 29.95 in1014.2 mb 0.00 in0.0 mm 0.00 in0.0 mm 0.00 in0.0 mm
04:10 AM 80.8°F27.1°C 74.1°F23.4°C 80% Calm Calm 1.0 mph1.6 kmh 29.95 in1014.2 mb 0.00 in0.0 mm 0.00 in0.0 mm 0.00 in0.0 mm
04:05 AM 80.9°F27.2°C 74.2°F23.4°C 80% Calm Calm 1.0 mph1.6 kmh 29.95 in1014.2 mb 0.00 in0.0 mm 0.00 in0.0 mm 0.00 in0.0 mm
04:00 AM 81.0°F27.2°C 74.3°F23.5°C 80% Calm Calm 1.0 mph1.6 kmh 29.95 in1014.2 mb 0.00 in0.0 mm 0.00 in0.0 mm 0.00 in0.0 mm
03:55 AM 81.1°F27.3°C 74.4°F23.6°C 80% Calm Calm 2.0 mph3.2 kmh 29.94 in1013.9 mb 0.00 in0.0 mm 0.00 in0.0 mm 0.00 in0.0 mm
03:50 AM 81.2°F27.3°C 74.5°F23.6°C 80% Calm Calm -- 29.94 in1013.9 mb 0.00 in0.0 mm 0.00 in0.0 mm 0.00 in0.0 mm
03:45 AM 81.4°F27.4°C 74.6°F23.7°C 80% 1.0 mph SE1.6 kmh SE 1.0 mph1.6 kmh 29.94 in1013.9 mb 0.00 in0.0 mm 0.00 in0.0 mm 0.00 in0.0 mm
03:40 AM 81.5°F27.5°C 74.4°F23.6°C 79% Calm Calm 1.0 mph1.6 kmh 29.94 in1013.9 mb 0.00 in0.0 mm 0.00 in0.0 mm 0.00 in0.0 mm
03:35 AM 81.6°F27.6°C 74.5°F23.6°C 79% Calm Calm 2.0 mph3.2 kmh 29.94 in1013.9 mb 0.00 in0.0 mm 0.00 in0.0 mm 0.00 in0.0 mm
03:30 AM 81.7°F27.6°C 74.6°F23.7°C 79% 1.0 mph WSW1.6 kmh WSW 2.0 mph3.2 kmh 29.94 in1013.9 mb 0.00 in0.0 mm 0.00 in0.0 mm 0.00 in0.0 mm
03:25 AM 81.6°F27.6°C 74.8°F23.8°C 80% 2.0 mph WSW3.2 kmh WSW 2.0 mph3.2 kmh 29.94 in1013.9 mb 0.00 in0.0 mm 0.00 in0.0 mm 0.00 in0.0 mm
03:20 AM 81.7°F27.6°C 74.9°F23.8°C 80% 2.0 mph S3.2 kmh S 5.0 mph8.0 kmh 29.94 in1013.9 mb 0.00 in0.0 mm 0.00 in0.0 mm 0.00 in0.0 mm
03:15 AM 81.8°F27.7°C 74.7°F23.7°C 79% Calm Calm 2.0 mph3.2 kmh 29.94 in1013.9 mb 0.00 in0.0 mm 0.00 in0.0 mm 0.00 in0.0 mm
03:10 AM 81.8°F27.7°C 74.7°F23.7°C 79% Calm Calm 1.0 mph1.6 kmh 29.94 in1013.9 mb 0.00 in0.0 mm 0.00 in0.0 mm 0.00 in0.0 mm
03:05 AM 82.0°F27.8°C 74.9°F23.8°C 79% Calm Calm 3.0 mph4.8 kmh 29.94 in1013.9 mb 0.00 in0.0 mm 0.00 in0.0 mm 0.00 in0.0 mm
03:00 AM 82.0°F27.8°C 74.9°F23.8°C 79% Calm Calm 1.0 mph1.6 kmh 29.94 in1013.9 mb 0.00 in0.0 mm 0.00 in0.0 mm 0.00 in0.0 mm
02:55 AM 82.1°F27.8°C 75.0°F23.9°C 79% Calm Calm 3.0 mph4.8 kmh 29.94 in1013.9 mb 0.00 in0.0 mm 0.00 in0.0 mm 0.00 in0.0 mm
02:50 AM 82.2°F27.9°C 75.0°F23.9°C 79% Calm Calm 1.0 mph1.6 kmh 29.94 in1013.9 mb 0.00 in0.0 mm 0.00 in0.0 mm 0.00 in0.0 mm
02:45 AM 82.3°F27.9°C 75.1°F23.9°C 79% 1.0 mph SW1.6 kmh SW 2.0 mph3.2 kmh 29.94 in1013.9 mb 0.00 in0.0 mm 0.00 in0.0 mm 0.00 in0.0 mm
02:40 AM 82.4°F28.0°C 74.9°F23.8°C 78% Calm Calm 2.0 mph3.2 kmh 29.94 in1013.9 mb 0.00 in0.0 mm 0.00 in0.0 mm 0.00 in0.0 mm
02:35 AM 82.6°F28.1°C 75.1°F23.9°C 78% Calm Calm 1.0 mph1.6 kmh 29.94 in1013.9 mb 0.00 in0.0 mm 0.00 in0.0 mm 0.00 in0.0 mm
02:30 AM 82.6°F28.1°C 75.1°F23.9°C 78% 1.0 mph SSE1.6 kmh SSE 2.0 mph3.2 kmh 29.94 in1013.9 mb 0.00 in0.0 mm 0.00 in0.0 mm 0.00 in0.0 mm
02:25 AM 82.8°F28.2°C 75.2°F24.0°C 78% 2.0 mph SSE3.2 kmh SSE 3.0 mph4.8 kmh 29.94 in1013.9 mb 0.00 in0.0 mm 0.00 in0.0 mm 0.00 in0.0 mm
02:20 AM 82.9°F28.3°C 75.3°F24.1°C 78% 1.0 mph SE1.6 kmh SE 2.0 mph3.2 kmh 29.94 in1013.9 mb 0.00 in0.0 mm 0.00 in0.0 mm 0.00 in0.0 mm
02:15 AM 83.0°F28.3°C 75.4°F24.1°C 78% Calm Calm 2.0 mph3.2 kmh 29.94 in1013.9 mb 0.00 in0.0 mm 0.00 in0.0 mm 0.00 in0.0 mm
02:10 AM 83.1°F28.4°C 75.2°F24.0°C 77% Calm Calm 4.0 mph6.4 kmh 29.94 in1013.9 mb 0.00 in0.0 mm 0.00 in0.0 mm 0.00 in0.0 mm
02:05 AM 83.2°F28.4°C 75.2°F24.0°C 77% Calm Calm 2.0 mph3.2 kmh 29.94 in1013.9 mb 0.00 in0.0 mm 0.00 in0.0 mm 0.00 in0.0 mm
02:00 AM 83.3°F28.5°C 75.3°F24.1°C 77% 3.0 mph E4.8 kmh E 5.0 mph8.0 kmh 29.94 in1013.9 mb 0.00 in0.0 mm 0.00 in0.0 mm 0.00 in0.0 mm
01:55 AM 83.4°F28.6°C 75.4°F24.1°C 77% 2.0 mph W3.2 kmh W 3.0 mph4.8 kmh 29.94 in1013.9 mb 0.00 in0.0 mm 0.00 in0.0 mm 0.00 in0.0 mm
01:50 AM 83.5°F28.6°C 75.5°F24.2°C 77% 3.0 mph SE4.8 kmh SE 4.0 mph6.4 kmh 29.93 in1013.5 mb 0.00 in0.0 mm 0.00 in0.0 mm 0.00 in0.0 mm
01:45 AM 83.6°F28.7°C 75.2°F24.0°C 76% 2.0 mph S3.2 kmh S 6.0 mph9.7 kmh 29.93 in1013.5 mb 0.00 in0.0 mm 0.00 in0.0 mm 0.00 in0.0 mm
01:40 AM 83.8°F28.8°C 75.4°F24.1°C 76% 1.0 mph S1.6 kmh S 2.0 mph3.2 kmh 29.93 in1013.5 mb 0.00 in0.0 mm 0.00 in0.0 mm 0.00 in0.0 mm
01:35 AM 83.9°F28.8°C 75.5°F24.2°C 76% 1.0 mph S1.6 kmh S 2.0 mph3.2 kmh 29.93 in1013.5 mb 0.00 in0.0 mm 0.00 in0.0 mm 0.00 in0.0 mm
01:30 AM 84.0°F28.9°C 75.2°F24.0°C 75% 1.0 mph SE1.6 kmh SE 3.0 mph4.8 kmh 29.93 in1013.5 mb 0.00 in0.0 mm 0.00 in0.0 mm 0.00 in0.0 mm
01:25 AM 84.2°F29.0°C 75.4°F24.1°C 75% 2.0 mph SSE3.2 kmh SSE 7.0 mph11.3 kmh 29.93 in1013.5 mb 0.00 in0.0 mm 0.00 in0.0 mm 0.00 in0.0 mm
01:20 AM 84.3°F29.1°C 75.5°F24.2°C 75% 1.0 mph SE1.6 kmh SE 4.0 mph6.4 kmh 29.93 in1013.5 mb 0.00 in0.0 mm 0.00 in0.0 mm 0.00 in0.0 mm
01:15 AM 84.5°F29.2°C 75.3°F24.1°C 74% 1.0 mph SE1.6 kmh SE 4.0 mph6.4 kmh 29.93 in1013.5 mb 0.00 in0.0 mm 0.00 in0.0 mm 0.00 in0.0 mm
01:10 AM 84.5°F29.2°C 75.3°F24.1°C 74% 1.0 mph SE1.6 kmh SE 3.0 mph4.8 kmh 29.93 in1013.5 mb 0.00 in0.0 mm 0.00 in0.0 mm 0.00 in0.0 mm
01:05 AM 84.6°F29.2°C 75.4°F24.1°C 74% 1.0 mph SE1.6 kmh SE 4.0 mph6.4 kmh 29.93 in1013.5 mb 0.00 in0.0 mm 0.00 in0.0 mm 0.00 in0.0 mm
01:00 AM 84.7°F29.3°C 75.5°F24.2°C 74% 1.0 mph SW1.6 kmh SW 4.0 mph6.4 kmh 29.93 in1013.5 mb 0.00 in0.0 mm 0.00 in0.0 mm 0.00 in0.0 mm
12:55 AM 84.9°F29.4°C 75.3°F24.1°C 73% Calm Calm 1.0 mph1.6 kmh 29.93 in1013.5 mb 0.00 in0.0 mm 0.00 in0.0 mm 0.00 in0.0 mm
12:50 AM 85.0°F29.4°C 75.4°F24.1°C 73% Calm Calm 3.0 mph4.8 kmh 29.93 in1013.5 mb 0.00 in0.0 mm 0.00 in0.0 mm 0.00 in0.0 mm
12:45 AM 85.2°F29.6°C 75.6°F24.2°C 73% 3.0 mph SW4.8 kmh SW 3.0 mph4.8 kmh 29.93 in1013.5 mb 0.00 in0.0 mm 0.00 in0.0 mm 0.00 in0.0 mm
12:40 AM 85.3°F29.6°C 75.7°F24.3°C 73% 3.0 mph WSW4.8 kmh WSW 4.0 mph6.4 kmh 29.93 in1013.5 mb 0.00 in0.0 mm 0.00 in0.0 mm 0.00 in0.0 mm
12:35 AM 85.4°F29.7°C 75.4°F24.1°C 72% 2.0 mph SE3.2 kmh SE 4.0 mph6.4 kmh 29.93 in1013.5 mb 0.00 in0.0 mm 0.00 in0.0 mm 0.00 in0.0 mm
12:30 AM 85.6°F29.8°C 75.5°F24.2°C 72% Calm Calm 1.0 mph1.6 kmh 29.93 in1013.5 mb 0.00 in0.0 mm 0.00 in0.0 mm 0.00 in0.0 mm
12:25 AM 85.8°F29.9°C 75.7°F24.3°C 72% 1.0 mph SSE1.6 kmh SSE 4.0 mph6.4 kmh 29.93 in1013.5 mb 0.00 in0.0 mm 0.00 in0.0 mm 0.00 in0.0 mm
12:20 AM 86.0°F30.0°C 75.5°F24.2°C 71% 1.0 mph SE1.6 kmh SE 3.0 mph4.8 kmh 29.93 in1013.5 mb 0.00 in0.0 mm 0.00 in0.0 mm 0.00 in0.0 mm
12:15 AM 86.1°F30.1°C 75.6°F24.2°C 71% 1.0 mph SSW1.6 kmh SSW 1.0 mph1.6 kmh 29.93 in1013.5 mb 0.00 in0.0 mm 0.00 in0.0 mm 0.00 in0.0 mm
12:10 AM 86.2°F30.1°C 75.7°F24.3°C 71% 1.0 mph SSE1.6 kmh SSE 3.0 mph4.8 kmh 29.93 in1013.5 mb 0.00 in0.0 mm 0.00 in0.0 mm 0.00 in0.0 mm
12:05 AM 86.3°F30.2°C 75.4°F24.1°C 70% 3.0 mph SW4.8 kmh SW 3.0 mph4.8 kmh 29.93 in1013.5 mb 0.00 in0.0 mm 0.00 in0.0 mm 0.00 in0.0 mm
12:00 AM 86.3°F30.2°C 75.4°F24.1°C 70% 4.0 mph E6.4 kmh E 5.0 mph8.0 kmh 29.93 in1013.5 mb 0.00 in0.0 mm 0.00 in0.0 mm 0.00 in0.0 mm